Terminal Aerodrome Forecast
Issued by NWS

Home | Current Version | Previous Version | Text Only | Print | Product List | Glossary On
Versions: 1 2 3 4 5 6 7 8 9 10 11 12
000
FTUS42 KTAE 040520
TAFDHN
TAF
KDHN 040520Z 0406/0506 10008KT P6SM BKN090
     FM040900 12009KT P6SM OVC040
     FM041400 13010G15KT P6SM OVC025
     FM041700 15010KT 5SM -RA BR OVC020
     FM050000 14008KT 4SM -RA BR OVC005=

USA.gov is the U.S. government's official web portal to all federal, state and local government web resources and services.